Eudora, Kansas
Current Conditions -  °F | °C
As of 7:52 PM on Thursday 20 Nov 2014 (Local Time) from KLWC Reporting Station
Clear Clear  
Wind Chill: 22°   Ceiling: Unl
Heat Index: 30°   Visibility: 10mi
Dew Point: 18°   Wind: 9mph
Humidity: 61%   Direction: 60°ENE
Pressure: 30.23"   Gusts: NA
Location:  38.94°N, 95.1°W
Report Text: KLWC 210152Z AUTO 06008KT 10SM CLR M01/M08 A3023 RMK AO2 SLP247 T10111078
Loading
Personal Weather Stations






























Interactive Weather Map New forecast layout! Learn more

10-Day Weather Forecast

Advertisements
Track Severe Weather on mobile